Time;durP1;ratioP1;P1;durP2;ratioP2;P2;SDS_P1;SDS_P2;PMS_P1;PMS_P2;Temp;Humidity;BMP_temperature;BMP_pressure;BME280_temperature;BME280_humidity;BME280_pressure;Samples;Min_cycle;Max_cycle;Signal;HPM_P1;HPM_P2
2023/04/08 00:01:52;;;;;;;7.10;3.00;;;;;;;;;;110251;1277;22156;-79
2023/04/08 00:04:20;;;;;;;7.10;3.10;;;;;;;;;;110330;1277;23168;-80
2023/04/08 00:06:50;;;;;;;8.00;3.20;;;;;;;;;;110328;1277;22047;-79
2023/04/08 00:09:18;;;;;;;8.20;3.70;;;;;;;;;;110303;1262;22129;-79
2023/04/08 00:11:47;;;;;;;8.80;4.20;;;;;;;;;;110473;1277;22121;-79
2023/04/08 00:14:15;;;;;;;9.20;3.40;;;;;;;;;;110296;1277;22217;-80
2023/04/08 00:16:44;;;;;;;8.90;3.90;;;;;;;;;;110299;1278;22142;-78
2023/04/08 00:19:13;;;;;;;9.20;3.60;;;;;;;;;;110563;1260;22209;-81
2023/04/08 00:21:41;;;;;;;8.10;3.40;;;;;;;;;;110335;1277;22096;-78
2023/04/08 00:31:16;;;;;;;6.90;3.00;;;;;;;;;;104184;1302;544982;-85
2023/04/08 00:33:43;;;;;;;6.70;2.80;;;;;;;;;;106426;1276;25534;-79
2023/04/08 00:36:15;;;;;;;7.00;2.90;;;;;;;;;;106343;1285;22530;-79
2023/04/08 00:38:50;;;;;;;7.40;3.40;;;;;;;;;;106423;1285;22629;-80
2023/04/08 00:41:30;;;;;;;8.30;3.30;;;;;;;;;;106260;1269;22588;-83
2023/04/08 00:43:59;;;;;;;7.80;3.50;;;;;;;;;;104478;1284;2630765;-83
2023/04/08 00:46:35;;;;;;;8.10;3.70;;;;;;;;;;106454;1284;24251;-79
2023/04/08 00:49:17;;;;;;;;;;;;;;;;;;;;;
2023/04/08 00:51:57;;;;;;;8.10;3.80;;;;;;;;;;106466;1269;25223;-83
2023/04/08 00:54:44;;;;;;;8.10;3.90;;;;;;;;;;106480;1283;25482;-83
2023/04/08 00:57:39;;;;;;;8.60;4.10;;;;;;;;;;106454;1283;22654;-91
2023/04/08 01:00:21;;;;;;;8.40;4.40;;;;;;;;;;106491;1283;22758;-81
2023/04/08 01:03:21;;;;;;;10.00;4.30;;;;;;;;;;106385;1284;25331;-83
2023/04/08 01:06:08;;;;;;;7.90;3.80;;;;;;;;;;106435;1263;25363;-80
2023/04/08 01:08:37;;;;;;;8.10;3.90;;;;;;;;;;106485;1284;24326;-82
2023/04/08 01:11:36;;;;;;;;;;;;;;;;;;;;;
2023/04/08 01:14:26;;;;;;;8.90;4.30;;;;;;;;;;106826;1281;24240;-83
2023/04/08 01:16:54;;;;;;;12.50;5.50;;;;;;;;;;106800;1281;25287;-80
2023/04/08 01:19:51;;;;;;;;;;;;;;;;;;;;;
2023/04/08 01:22:26;;;;;;;11.10;5.50;;;;;;;;;;106559;1281;22542;-83
2023/04/08 01:25:00;;;;;;;10.60;5.90;;;;;;;;;;106858;1280;22527;-80
2023/04/08 01:27:30;;;;;;;11.40;6.00;;;;;;;;;;106842;1280;22527;-82
2023/04/08 01:30:37;;;;;;;10.90;5.60;;;;;;;;;;106555;1279;22620;-83
2023/04/08 01:33:09;;;;;;;10.40;4.80;;;;;;;;;;106836;1260;24242;-83
2023/04/08 01:35:36;;;;;;;10.20;4.90;;;;;;;;;;106583;1279;22531;-82
2023/04/08 01:38:06;;;;;;;10.80;5.40;;;;;;;;;;106806;1279;25227;-79
2023/04/08 01:40:34;;;;;;;12.20;5.50;;;;;;;;;;106610;1279;22785;-85
2023/04/08 01:43:07;;;;;;;12.00;5.60;;;;;;;;;;106814;1271;22961;-82
2023/04/08 01:46:03;;;;;;;10.40;5.20;;;;;;;;;;106655;1280;22527;-81
2023/04/08 01:48:31;;;;;;;12.60;5.90;;;;;;;;;;106495;1280;22545;-85
2023/04/08 01:51:29;;;;;;;11.40;5.20;;;;;;;;;;106544;1281;22682;-86
2023/04/08 01:54:17;;;;;;;14.40;5.80;;;;;;;;;;107009;1276;24218;-83
2023/04/08 01:56:50;;;;;;;12.20;5.80;;;;;;;;;;107063;1276;26002;-79
2023/04/08 01:59:32;;;;;;;11.10;5.50;;;;;;;;;;106954;1276;26562;-82
2023/04/08 02:02:04;;;;;;;12.20;5.60;;;;;;;;;;106918;1260;24263;-83
2023/04/08 02:04:54;;;;;;;13.50;5.90;;;;;;;;;;106837;1277;25275;-80
2023/04/08 02:07:54;;;;;;;11.50;5.80;;;;;;;;;;106935;1278;24208;-84
2023/04/08 02:10:27;;;;;;;11.40;5.40;;;;;;;;;;106894;1277;25229;-81
2023/04/08 02:13:14;;;;;;;12.00;5.80;;;;;;;;;;106994;1257;25315;-80
2023/04/08 02:15:52;;;;;;;13.40;5.60;;;;;;;;;;106941;1276;22655;-82
2023/04/08 02:18:33;;;;;;;13.10;6.10;;;;;;;;;;106977;1276;24196;-80
2023/04/08 02:21:15;;;;;;;11.40;5.70;;;;;;;;;;106913;1276;25534;-86
2023/04/08 02:23:50;;;;;;;13.10;6.20;;;;;;;;;;106939;1277;22532;-80
2023/04/08 02:26:41;;;;;;;13.00;6.20;;;;;;;;;;106836;1277;22588;-80
2023/04/08 02:29:30;;;;;;;13.10;6.50;;;;;;;;;;106803;1277;22519;-80
2023/04/08 02:31:57;;;;;;;16.10;6.80;;;;;;;;;;106635;1278;23146;-82
2023/04/08 02:34:34;;;;;;;17.20;7.80;;;;;;;;;;106921;1263;22520;-83
2023/04/08 02:37:07;;;;;;;15.90;8.00;;;;;;;;;;106938;1275;24954;-81
2023/04/08 02:43:09;;;;;;;15.20;7.00;;;;;;;;;;106463;1260;25297;-84
2023/04/08 02:45:43;;;;;;;16.80;7.40;;;;;;;;;;106403;1284;22529;-83
2023/04/08 02:48:12;;;;;;;19.00;7.80;;;;;;;;;;106411;1284;25335;-83
2023/04/08 02:50:40;;;;;;;16.60;7.90;;;;;;;;;;106378;1284;22628;-83
2023/04/08 02:53:12;;;;;;;21.90;9.10;;;;;;;;;;106463;1260;22531;-83
2023/04/08 02:55:42;;;;;;;22.10;8.90;;;;;;;;;;106266;1284;24258;-84
2023/04/08 02:58:15;;;;;;;20.90;9.10;;;;;;;;;;106354;1284;22646;-81
2023/04/08 03:00:45;;;;;;;18.90;9.20;;;;;;;;;;106346;1284;25248;-82
2023/04/08 03:03:28;;;;;;;;;;;;;;;;;;;;;
2023/04/08 03:06:25;;;;;;;24.40;10.10;;;;;;;;;;106407;1284;24209;-82
2023/04/08 03:08:57;;;;;;;23.10;10.40;;;;;;;;;;106442;1284;22550;-84
2023/04/08 03:14:17;;;;;;;25.40;10.20;;;;;;;;;;106434;1261;24205;-80
2023/04/08 03:17:15;;;;;;;30.10;11.90;;;;;;;;;;106352;1284;22546;-85
2023/04/08 03:19:45;;;;;;;26.00;11.20;;;;;;;;;;106194;1282;22652;-85
2023/04/08 03:22:35;;;;;;;25.30;11.10;;;;;;;;;;106445;1282;25514;-83
2023/04/08 03:25:22;;;;;;;25.80;10.70;;;;;;;;;;106532;1264;25335;-79
2023/04/08 03:28:19;;;;;;;26.50;11.40;;;;;;;;;;106462;1282;25464;-80
2023/04/08 03:30:46;;;;;;;25.90;11.60;;;;;;;;;;106503;1282;25482;-82
2023/04/08 03:33:13;;;;;;;28.20;11.70;;;;;;;;;;106489;1283;22558;-79
2023/04/08 03:35:43;;;;;;;34.10;12.30;;;;;;;;;;106466;1282;22569;-81
2023/04/08 03:38:09;;;;;;;34.10;12.30;;;;;;;;;;106519;1282;25287;-79
2023/04/08 03:40:39;;;;;;;33.20;11.90;;;;;;;;;;106638;1282;25404;-79
2023/04/08 03:43:31;;;;;;;30.40;12.70;;;;;;;;;;106498;1282;25390;-83
2023/04/08 03:46:06;;;;;;;31.00;12.80;;;;;;;;;;106682;1261;22531;-80
2023/04/08 03:48:36;;;;;;;29.30;11.50;;;;;;;;;;106580;1280;22542;-81
2023/04/08 03:51:04;;;;;;;30.40;12.80;;;;;;;;;;106600;1281;26506;-78
2023/04/08 03:53:49;;;;;;;;;;;;;;;;;;;;;
2023/04/08 03:56:23;;;;;;;32.10;13.90;;;;;;;;;;106561;1263;22469;-86
2023/04/08 03:59:10;;;;;;;34.50;13.80;;;;;;;;;;107262;1272;25268;-88
2023/04/08 04:01:37;;;;;;;30.00;13.10;;;;;;;;;;107232;1273;24250;-82
2023/04/08 04:04:13;;;;;;;31.10;13.90;;;;;;;;;;107099;1272;24240;-81
2023/04/08 04:06:50;;;;;;;37.10;15.50;;;;;;;;;;107233;1269;26554;-81
2023/04/08 04:09:25;;;;;;;38.30;16.70;;;;;;;;;;107235;1272;25475;-82
2023/04/08 04:12:05;;;;;;;;;;;;;;;;;;;;;
2023/04/08 04:14:54;;;;;;;;;;;;;;;;;;;;;
2023/04/08 04:17:24;;;;;;;35.30;14.10;;;;;;;;;;107230;1256;22516;-76
2023/04/08 04:19:54;;;;;;;30.80;14.00;;;;;;;;;;106925;1273;22530;-85
2023/04/08 04:22:39;;;;;;;30.60;14.20;;;;;;;;;;107273;1273;22488;-79
2023/04/08 04:25:29;;;;;;;28.00;12.40;;;;;;;;;;107194;1273;22709;-77
2023/04/08 04:28:01;;;;;;;27.70;12.40;;;;;;;;;;106713;1261;22828;-76
2023/04/08 04:31:20;;;;;;;;;;;;;;;;;;;;;
2023/04/08 04:34:20;;;;;;;27.20;13.50;;;;;;;;;;106675;1281;25463;-81
2023/04/08 04:36:50;;;;;;;30.00;14.50;;;;;;;;;;106533;1274;22550;-84
2023/04/08 04:39:20;;;;;;;27.00;13.00;;;;;;;;;;106698;1281;22654;-78
2023/04/08 04:41:48;;;;;;;26.50;13.30;;;;;;;;;;106472;1281;22525;-81
2023/04/08 04:44:37;;;;;;;28.50;13.30;;;;;;;;;;106704;1280;23577;-79
2023/04/08 04:47:07;;;;;;;27.60;12.80;;;;;;;;;;106658;1262;22539;-80
2023/04/08 04:49:39;;;;;;;29.00;13.60;;;;;;;;;;106688;1267;22489;-77
2023/04/08 04:52:11;;;;;;;29.90;14.30;;;;;;;;;;106640;1281;22770;-78
2023/04/08 04:54:41;;;;;;;30.10;16.00;;;;;;;;;;106565;1281;22537;-82
2023/04/08 04:57:11;;;;;;;28.70;13.80;;;;;;;;;;106472;1273;22547;-80
2023/04/08 04:59:49;;;;;;;30.10;14.60;;;;;;;;;;106622;1280;22535;-80
2023/04/08 05:02:22;;;;;;;32.80;15.40;;;;;;;;;;106724;1281;25330;-77
2023/04/08 05:04:52;;;;;;;29.70;15.40;;;;;;;;;;106705;1273;23096;-80
2023/04/08 05:07:24;;;;;;;31.00;15.90;;;;;;;;;;107215;1254;22984;-82
2023/04/08 05:09:52;;;;;;;28.70;14.50;;;;;;;;;;107203;1272;22536;-84
2023/04/08 05:12:24;;;;;;;29.10;14.80;;;;;;;;;;107198;1272;23132;-79
2023/04/08 05:14:54;;;;;;;29.20;14.40;;;;;;;;;;107151;1273;25230;-82
2023/04/08 05:17:24;;;;;;;31.10;16.00;;;;;;;;;;107165;1257;22589;-83
2023/04/08 05:20:01;;;;;;;30.60;15.30;;;;;;;;;;107110;1273;22533;-83
2023/04/08 05:22:41;;;;;;;;;;;;;;;;;;;;;
2023/04/08 05:25:30;;;;;;;28.30;15.50;;;;;;;;;;107189;1273;22524;-79
2023/04/08 05:28:03;;;;;;;29.30;14.80;;;;;;;;;;107202;1253;22576;-78
2023/04/08 05:30:38;;;;;;;27.10;14.50;;;;;;;;;;107285;1273;22520;-82
2023/04/08 05:33:33;;;;;;;30.50;15.20;;;;;;;;;;107256;1250;25569;-83
2023/04/08 05:36:02;;;;;;;29.00;15.20;;;;;;;;;;107232;1273;22530;-78
2023/04/08 05:38:50;;;;;;;29.60;15.90;;;;;;;;;;107065;1253;22541;-77
2023/04/08 05:41:30;;;;;;;31.10;15.40;;;;;;;;;;107005;1273;24362;-83
2023/04/08 05:43:57;;;;;;;31.20;16.50;;;;;;;;;;107098;1273;24199;-76
2023/04/08 05:46:44;;;;;;;31.50;15.50;;;;;;;;;;107059;1273;22524;-81
2023/04/08 05:49:14;;;;;;;29.30;15.20;;;;;;;;;;106992;1269;25333;-87
2023/04/08 05:51:43;;;;;;;26.50;14.70;;;;;;;;;;107144;1272;23883;-81
2023/04/08 05:54:12;;;;;;;27.30;14.80;;;;;;;;;;107240;1272;23111;-83
2023/04/08 05:56:50;;;;;;;;;;;;;;;;;;;;;
2023/04/08 05:59:29;;;;;;;26.00;14.20;;;;;;;;;;106721;1258;24231;-78
2023/04/08 06:01:59;;;;;;;27.50;14.70;;;;;;;;;;106822;1278;24268;-83
2023/04/08 06:04:26;;;;;;;27.60;14.40;;;;;;;;;;106752;1277;22576;-75
2023/04/08 06:06:53;;;;;;;25.50;14.40;;;;;;;;;;106593;1278;24273;-79
2023/04/08 06:09:57;;;;;;;26.70;14.40;;;;;;;;;;106544;1276;24212;-79
2023/04/08 06:12:24;;;;;;;28.80;15.00;;;;;;;;;;110386;1278;22116;-75
2023/04/08 06:14:55;;;;;;;27.90;15.00;;;;;;;;;;110194;1261;22478;-75
2023/04/08 06:17:21;;;;;;;25.20;14.10;;;;;;;;;;110184;1278;22170;-76
2023/04/08 06:19:48;;;;;;;27.50;14.50;;;;;;;;;;110161;1261;22188;-76
2023/04/08 06:22:15;;;;;;;25.70;13.90;;;;;;;;;;110140;1278;22147;-75
2023/04/08 06:24:42;;;;;;;24.90;13.40;;;;;;;;;;110179;1279;22182;-77
2023/04/08 06:27:09;;;;;;;25.50;15.00;;;;;;;;;;110173;1279;22206;-76
2023/04/08 06:29:35;;;;;;;29.40;14.60;;;;;;;;;;110400;1257;22869;-76
2023/04/08 06:32:02;;;;;;;27.50;14.40;;;;;;;;;;110682;1274;22076;-77
2023/04/08 06:34:29;;;;;;;28.70;15.50;;;;;;;;;;110642;1274;22220;-76
2023/04/08 06:36:56;;;;;;;26.20;13.70;;;;;;;;;;110648;1274;22143;-76
2023/04/08 06:39:23;;;;;;;24.30;14.10;;;;;;;;;;110883;1256;22256;-77
2023/04/08 06:41:49;;;;;;;28.50;14.40;;;;;;;;;;110625;1267;22097;-76
2023/04/08 06:44:26;;;;;;;27.20;14.40;;;;;;;;;;110646;1274;22127;-77
2023/04/08 06:46:53;;;;;;;28.80;14.40;;;;;;;;;;110604;1274;22113;-77
2023/04/08 06:49:20;;;;;;;29.50;15.40;;;;;;;;;;110994;1253;23090;-76
2023/04/08 06:51:47;;;;;;;28.90;15.10;;;;;;;;;;110639;1273;22380;-77
2023/04/08 06:54:14;;;;;;;27.60;14.10;;;;;;;;;;110791;1273;22083;-76
2023/04/08 06:56:41;;;;;;;28.20;14.60;;;;;;;;;;110622;1273;22450;-75
2023/04/08 06:59:08;;;;;;;23.60;13.70;;;;;;;;;;110910;1254;22324;-76
2023/04/08 07:01:35;;;;;;;27.00;14.20;;;;;;;;;;110636;1274;22107;-76
2023/04/08 07:04:02;;;;;;;25.10;12.70;;;;;;;;;;110625;1274;22164;-77
2023/04/08 07:06:29;;;;;;;26.70;14.40;;;;;;;;;;110665;1274;22079;-77
2023/04/08 07:08:55;;;;;;;27.20;14.00;;;;;;;;;;110657;1251;22740;-76
2023/04/08 07:11:22;;;;;;;23.70;12.80;;;;;;;;;;110625;1273;22159;-76
2023/04/08 07:13:49;;;;;;;24.80;12.90;;;;;;;;;;110817;1273;22189;-76
2023/04/08 07:16:16;;;;;;;22.90;12.50;;;;;;;;;;110815;1273;22093;-76
2023/04/08 07:18:43;;;;;;;24.40;14.20;;;;;;;;;;110682;1273;22607;-74
2023/04/08 07:21:09;;;;;;;26.50;13.60;;;;;;;;;;110837;1250;22083;-77
2023/04/08 07:23:36;;;;;;;25.10;13.00;;;;;;;;;;110672;1274;22333;-76
2023/04/08 07:26:06;;;;;;;23.00;13.10;;;;;;;;;;110537;1274;22315;-75
2023/04/08 07:28:32;;;;;;;23.30;12.40;;;;;;;;;;110649;1269;22561;-77
2023/04/08 07:31:13;;;;;;;23.90;13.90;;;;;;;;;;111019;1254;22123;-76
2023/04/08 07:33:40;;;;;;;23.70;12.90;;;;;;;;;;110550;1273;23044;-76
2023/04/08 07:36:10;;;;;;;24.10;13.00;;;;;;;;;;110660;1273;22167;-76
2023/04/08 07:38:39;;;;;;;22.40;11.90;;;;;;;;;;110525;1273;22829;-78
2023/04/08 07:41:06;;;;;;;20.70;11.60;;;;;;;;;;110864;1257;22111;-76
2023/04/08 07:43:33;;;;;;;19.60;11.00;;;;;;;;;;110667;1274;22121;-76
2023/04/08 07:46:02;;;;;;;18.20;10.50;;;;;;;;;;110669;1274;22310;-76
2023/04/08 07:48:31;;;;;;;20.20;11.40;;;;;;;;;;110654;1274;22853;-75
2023/04/08 07:51:02;;;;;;;21.30;11.20;;;;;;;;;;111095;1254;22162;-74
2023/04/08 07:53:29;;;;;;;20.60;11.30;;;;;;;;;;110684;1273;22168;-76
2023/04/08 07:55:55;;;;;;;20.50;11.80;;;;;;;;;;110721;1273;22107;-75
2023/04/08 07:58:22;;;;;;;19.90;11.30;;;;;;;;;;110758;1273;22118;-78
2023/04/08 08:00:49;;;;;;;20.40;11.70;;;;;;;;;;110895;1256;22312;-75
2023/04/08 08:03:16;;;;;;;20.10;11.10;;;;;;;;;;110641;1270;22338;-76
2023/04/08 08:05:43;;;;;;;22.00;12.10;;;;;;;;;;110624;1274;21969;-76
2023/04/08 08:08:12;;;;;;;20.90;12.10;;;;;;;;;;110644;1274;22118;-76
2023/04/08 08:10:39;;;;;;;22.50;13.00;;;;;;;;;;110805;1257;22186;-77
2023/04/08 08:13:07;;;;;;;24.40;13.60;;;;;;;;;;110671;1273;22582;-75
2023/04/08 08:15:34;;;;;;;21.70;12.60;;;;;;;;;;110746;1273;22104;-76
2023/04/08 08:18:01;;;;;;;20.00;12.30;;;;;;;;;;110763;1266;22866;-76
2023/04/08 08:20:28;;;;;;;21.50;12.90;;;;;;;;;;110621;1250;22249;-75
2023/04/08 08:22:54;;;;;;;20.80;12.50;;;;;;;;;;110603;1273;23225;-75
2023/04/08 08:25:21;;;;;;;22.80;13.60;;;;;;;;;;110635;1273;22773;-76
2023/04/08 08:27:48;;;;;;;20.40;12.60;;;;;;;;;;110521;1274;22371;-76
2023/04/08 08:30:15;;;;;;;21.50;12.40;;;;;;;;;;110609;1274;22197;-76
2023/04/08 08:32:42;;;;;;;23.40;12.60;;;;;;;;;;110869;1257;22436;-77
2023/04/08 08:35:09;;;;;;;21.10;12.50;;;;;;;;;;110518;1275;22127;-76
2023/04/08 08:37:35;;;;;;;21.10;11.50;;;;;;;;;;110501;1275;22800;-75
2023/04/08 08:40:02;;;;;;;19.80;11.80;;;;;;;;;;110474;1275;22131;-75
2023/04/08 08:42:29;;;;;;;19.00;11.40;;;;;;;;;;110849;1255;22363;-75
2023/04/08 08:44:56;;;;;;;19.70;11.10;;;;;;;;;;110625;1274;22390;-76
2023/04/08 08:47:23;;;;;;;20.50;11.90;;;;;;;;;;110607;1274;22108;-75
2023/04/08 08:49:50;;;;;;;22.70;12.20;;;;;;;;;;110532;1274;22119;-76
2023/04/08 08:52:17;;;;;;;23.70;13.10;;;;;;;;;;110797;1255;22094;-75
2023/04/08 08:54:45;;;;;;;21.00;11.90;;;;;;;;;;110615;1275;22817;-76
2023/04/08 08:57:18;;;;;;;20.40;12.00;;;;;;;;;;110599;1275;22121;-76
2023/04/08 08:59:46;;;;;;;19.70;11.60;;;;;;;;;;110538;1275;22101;-75
2023/04/08 09:02:27;;;;;;;18.50;11.10;;;;;;;;;;110652;1257;22118;-73
2023/04/08 09:04:55;;;;;;;18.80;11.20;;;;;;;;;;110618;1274;23043;-75
2023/04/08 09:07:23;;;;;;;18.40;10.70;;;;;;;;;;110506;1274;22857;-75
2023/04/08 09:09:50;;;;;;;19.30;11.70;;;;;;;;;;110504;1274;22608;-76
2023/04/08 09:12:17;;;;;;;20.10;12.30;;;;;;;;;;110381;1272;22129;-75
2023/04/08 09:14:45;;;;;;;21.20;12.20;;;;;;;;;;110620;1272;22133;-76
2023/04/08 09:17:12;;;;;;;20.00;11.20;;;;;;;;;;110486;1275;22118;-75
2023/04/08 09:19:39;;;;;;;18.60;11.80;;;;;;;;;;110591;1275;22159;-75
2023/04/08 09:22:07;;;;;;;19.60;11.30;;;;;;;;;;110661;1258;22102;-75
2023/04/08 09:24:36;;;;;;;18.10;11.60;;;;;;;;;;110642;1274;22287;-74
2023/04/08 09:27:04;;;;;;;19.60;12.30;;;;;;;;;;110531;1274;22470;-76
2023/04/08 09:29:32;;;;;;;22.80;13.20;;;;;;;;;;110622;1274;22109;-72
2023/04/08 09:32:00;;;;;;;19.80;11.60;;;;;;;;;;110656;1268;22218;-75
2023/04/08 09:34:27;;;;;;;18.50;10.80;;;;;;;;;;110566;1276;22085;-76
2023/04/08 09:36:54;;;;;;;17.40;10.90;;;;;;;;;;110458;1275;22180;-74
2023/04/08 09:39:21;;;;;;;19.30;12.10;;;;;;;;;;110386;1275;22114;-75
2023/04/08 09:41:50;;;;;;;18.60;12.10;;;;;;;;;;110488;1253;22381;-76
2023/04/08 09:44:18;;;;;;;19.80;12.60;;;;;;;;;;110576;1275;22146;-75
2023/04/08 09:46:48;;;;;;;21.40;12.90;;;;;;;;;;110469;1275;22101;-76
2023/04/08 09:49:15;;;;;;;20.70;12.40;;;;;;;;;;110586;1275;22212;-75
2023/04/08 09:51:41;;;;;;;18.10;11.20;;;;;;;;;;110566;1276;23107;-73
2023/04/08 09:54:12;;;;;;;20.20;11.80;;;;;;;;;;110994;1253;22162;-73
2023/04/08 09:56:42;;;;;;;19.50;11.20;;;;;;;;;;110494;1275;22110;-74
2023/04/08 09:59:16;;;;;;;19.00;12.00;;;;;;;;;;110498;1276;22130;-75
2023/04/08 10:01:45;;;;;;;20.00;12.50;;;;;;;;;;110478;1276;22119;-76
2023/04/08 10:04:15;;;;;;;19.30;11.70;;;;;;;;;;110774;1254;22108;-74
2023/04/08 10:06:42;;;;;;;18.00;11.20;;;;;;;;;;110403;1275;22119;-75
2023/04/08 10:09:09;;;;;;;18.00;11.80;;;;;;;;;;110501;1275;22134;-73
2023/04/08 10:11:36;;;;;;;18.60;11.00;;;;;;;;;;110576;1275;22305;-75
2023/04/08 10:14:02;;;;;;;17.40;10.50;;;;;;;;;;110616;1253;22924;-75
2023/04/08 10:16:29;;;;;;;18.60;9.90;;;;;;;;;;110682;1274;22082;-75
2023/04/08 10:18:56;;;;;;;16.10;9.90;;;;;;;;;;110613;1274;22293;-74
2023/04/08 10:21:30;;;;;;;17.60;9.70;;;;;;;;;;110637;1274;22120;-75
2023/04/08 10:24:05;;;;;;;16.60;9.70;;;;;;;;;;110559;1253;22347;-75
2023/04/08 10:26:39;;;;;;;19.30;11.20;;;;;;;;;;110420;1276;22801;-75
2023/04/08 10:29:18;;;;;;;16.80;10.90;;;;;;;;;;110421;1276;22301;-75
2023/04/08 10:31:45;;;;;;;17.90;11.50;;;;;;;;;;110495;1276;22733;-75
2023/04/08 10:34:18;;;;;;;19.80;11.10;;;;;;;;;;110848;1253;22168;-75
2023/04/08 10:36:45;;;;;;;17.90;11.10;;;;;;;;;;110461;1276;22154;-74
2023/04/08 10:39:13;;;;;;;17.70;10.90;;;;;;;;;;110482;1263;21912;-75
2023/04/08 10:41:43;;;;;;;17.50;10.00;;;;;;;;;;110615;1276;22291;-75
2023/04/08 10:44:17;;;;;;;17.80;10.40;;;;;;;;;;110412;1259;22116;-75
2023/04/08 10:46:47;;;;;;;15.70;10.10;;;;;;;;;;110484;1276;22381;-75
2023/04/08 10:49:16;;;;;;;16.90;10.40;;;;;;;;;;110314;1276;22228;-76
2023/04/08 10:51:43;;;;;;;17.00;10.50;;;;;;;;;;110352;1276;22431;-76
2023/04/08 10:54:11;;;;;;;16.70;10.80;;;;;;;;;;110289;1260;22131;-75
2023/04/08 10:56:45;;;;;;;15.80;10.00;;;;;;;;;;110519;1276;22128;-75
2023/04/08 10:59:15;;;;;;;15.80;10.80;;;;;;;;;;110525;1276;22748;-76
2023/04/08 11:01:43;;;;;;;17.20;10.70;;;;;;;;;;110356;1276;23199;-77
2023/04/08 11:04:12;;;;;;;18.60;11.00;;;;;;;;;;110534;1259;22216;-76
2023/04/08 11:06:41;;;;;;;15.90;10.60;;;;;;;;;;110359;1277;22201;-75
2023/04/08 11:09:08;;;;;;;16.70;10.70;;;;;;;;;;110515;1276;22828;-75
2023/04/08 11:11:35;;;;;;;16.60;10.30;;;;;;;;;;110361;1276;22920;-75
2023/04/08 11:14:03;;;;;;;15.60;10.00;;;;;;;;;;110362;1256;22134;-76
2023/04/08 11:16:29;;;;;;;16.80;10.90;;;;;;;;;;110554;1276;22125;-75
2023/04/08 11:18:57;;;;;;;16.80;10.80;;;;;;;;;;110360;1276;22965;-76
2023/04/08 11:21:28;;;;;;;16.10;9.90;;;;;;;;;;110477;1276;22354;-75
2023/04/08 11:23:55;;;;;;;17.10;10.70;;;;;;;;;;110532;1254;22150;-75
2023/04/08 11:26:22;;;;;;;15.90;10.50;;;;;;;;;;110269;1277;22754;-76
2023/04/08 11:28:51;;;;;;;16.30;10.80;;;;;;;;;;110472;1277;21748;-76
2023/04/08 11:31:19;;;;;;;15.90;10.20;;;;;;;;;;110460;1277;22176;-75
2023/04/08 11:33:52;;;;;;;17.50;10.80;;;;;;;;;;110447;1277;22174;-74
2023/04/08 11:36:20;;;;;;;18.90;10.90;;;;;;;;;;110506;1259;22794;-75
2023/04/08 11:38:48;;;;;;;17.20;11.20;;;;;;;;;;110599;1276;22216;-75
2023/04/08 11:41:16;;;;;;;16.00;10.80;;;;;;;;;;110284;1276;22836;-75
2023/04/08 11:43:53;;;;;;;16.80;11.20;;;;;;;;;;110270;1276;22106;-75
2023/04/08 11:46:20;;;;;;;16.70;10.80;;;;;;;;;;110494;1256;22317;-76
2023/04/08 11:49:01;;;;;;;17.70;10.80;;;;;;;;;;110450;1276;22097;-75
2023/04/08 11:51:29;;;;;;;17.60;10.60;;;;;;;;;;110520;1276;22692;-76
2023/04/08 11:53:57;;;;;;;16.50;10.90;;;;;;;;;;110523;1276;22100;-75
2023/04/08 11:56:26;;;;;;;17.10;11.20;;;;;;;;;;110465;1257;22176;-75
2023/04/08 11:58:53;;;;;;;17.60;11.50;;;;;;;;;;110456;1277;22138;-75
2023/04/08 12:01:20;;;;;;;16.90;10.90;;;;;;;;;;110377;1277;22110;-76
2023/04/08 12:03:54;;;;;;;17.80;11.30;;;;;;;;;;110284;1264;22144;-75
2023/04/08 12:06:22;;;;;;;16.30;10.80;;;;;;;;;;110715;1257;22132;-75
2023/04/08 12:08:49;;;;;;;16.50;11.20;;;;;;;;;;110437;1276;22086;-75
2023/04/08 12:11:17;;;;;;;16.90;11.10;;;;;;;;;;110469;1276;22103;-76
2023/04/08 12:13:45;;;;;;;17.50;11.60;;;;;;;;;;110448;1276;22107;-75
2023/04/08 12:16:13;;;;;;;14.90;10.20;;;;;;;;;;110694;1259;22142;-75
2023/04/08 12:18:41;;;;;;;16.70;10.90;;;;;;;;;;110479;1277;22107;-75
2023/04/08 12:21:09;;;;;;;17.60;10.90;;;;;;;;;;110281;1277;22129;-75
2023/04/08 12:23:37;;;;;;;15.90;11.00;;;;;;;;;;110278;1277;22160;-75
2023/04/08 12:26:05;;;;;;;15.90;10.30;;;;;;;;;;110577;1258;22113;-75
2023/04/08 12:28:35;;;;;;;16.00;11.40;;;;;;;;;;110440;1277;22048;-75
2023/04/08 12:31:03;;;;;;;16.30;10.50;;;;;;;;;;110426;1277;22111;-75
2023/04/08 12:33:32;;;;;;;15.80;10.70;;;;;;;;;;110456;1277;22167;-75
2023/04/08 12:36:01;;;;;;;15.60;10.00;;;;;;;;;;110438;1259;22165;-75
2023/04/08 12:38:29;;;;;;;15.60;10.00;;;;;;;;;;110456;1277;22176;-75
2023/04/08 12:41:00;;;;;;;16.10;10.40;;;;;;;;;;110430;1277;22680;-75
2023/04/08 12:43:31;;;;;;;16.00;10.50;;;;;;;;;;110343;1277;22834;-74
2023/04/08 12:46:00;;;;;;;16.20;10.80;;;;;;;;;;108258;1259;2681759;-75
2023/04/08 12:48:30;;;;;;;15.20;10.10;;;;;;;;;;110418;1277;22664;-75
2023/04/08 12:50:58;;;;;;;15.90;10.80;;;;;;;;;;110417;1277;23017;-76
2023/04/08 12:53:27;;;;;;;16.60;10.60;;;;;;;;;;110457;1277;22125;-76
2023/04/08 12:55:58;;;;;;;15.40;10.50;;;;;;;;;;110421;1255;22146;-76
2023/04/08 12:58:28;;;;;;;16.10;10.40;;;;;;;;;;110105;1278;22015;-76
2023/04/08 13:00:56;;;;;;;16.50;10.30;;;;;;;;;;110414;1278;22177;-76
2023/04/08 13:03:29;;;;;;;16.30;10.60;;;;;;;;;;110445;1278;21986;-76
2023/04/08 13:05:58;;;;;;;16.20;10.60;;;;;;;;;;110450;1254;22368;-76
2023/04/08 13:08:27;;;;;;;17.00;10.60;;;;;;;;;;110449;1277;22295;-75
2023/04/08 13:10:55;;;;;;;16.30;9.80;;;;;;;;;;110433;1277;22438;-76
2023/04/08 13:13:25;;;;;;;16.40;9.90;;;;;;;;;;110433;1277;23012;-76
2023/04/08 13:15:55;;;;;;;15.10;9.50;;;;;;;;;;110460;1277;22284;-76
2023/04/08 13:18:24;;;;;;;19.60;12.40;;;;;;;;;;110686;1259;22135;-75
2023/04/08 13:20:53;;;;;;;16.40;11.30;;;;;;;;;;110163;1278;22088;-75
2023/04/08 13:23:22;;;;;;;16.90;10.50;;;;;;;;;;110461;1278;22134;-75
2023/04/08 13:32:51;;;;;;;17.20;10.90;;;;;;;;;;104113;1292;545822;-83
2023/04/08 13:35:18;;;;;;;19.50;12.00;;;;;;;;;;106355;1284;22579;-81
2023/04/08 13:37:45;;;;;;;21.70;12.60;;;;;;;;;;106383;1285;22794;-77
2023/04/08 13:40:15;;;;;;;19.30;11.60;;;;;;;;;;106020;1285;24203;-81
2023/04/08 13:42:42;;;;;;;17.00;11.50;;;;;;;;;;106331;1267;22489;-79
2023/04/08 13:45:09;;;;;;;18.10;11.70;;;;;;;;;;106318;1286;25289;-79
2023/04/08 13:47:37;;;;;;;23.00;12.50;;;;;;;;;;104210;1284;2874817;-79
2023/04/08 13:50:07;;;;;;;20.00;11.70;;;;;;;;;;106744;1275;22544;-78
2023/04/08 13:52:36;;;;;;;17.80;11.60;;;;;;;;;;106834;1254;24191;-76
2023/04/08 13:55:03;;;;;;;19.10;12.00;;;;;;;;;;107043;1276;25223;-79
2023/04/08 13:57:30;;;;;;;21.00;12.60;;;;;;;;;;106967;1276;23548;-76
2023/04/08 13:59:57;;;;;;;19.60;12.50;;;;;;;;;;106913;1276;22521;-82
2023/04/08 14:02:24;;;;;;;23.30;13.40;;;;;;;;;;106840;1253;25268;-76
2023/04/08 14:04:51;;;;;;;20.80;12.50;;;;;;;;;;106740;1278;22634;-77
2023/04/08 14:07:18;;;;;;;18.70;12.20;;;;;;;;;;106743;1278;24982;-81
2023/04/08 14:09:45;;;;;;;29.10;18.10;;;;;;;;;;106819;1274;22527;-77
2023/04/08 14:12:12;;;;;;;24.70;14.90;;;;;;;;;;106711;1278;23205;-80
2023/04/08 14:14:39;;;;;;;21.20;13.00;;;;;;;;;;106828;1277;24203;-81
2023/04/08 14:17:05;;;;;;;20.20;12.90;;;;;;;;;;106861;1277;25329;-76
2023/04/08 14:19:32;;;;;;;27.70;17.30;;;;;;;;;;106863;1277;22527;-77
2023/04/08 14:21:59;;;;;;;22.00;14.70;;;;;;;;;;106866;1277;22531;-82
2023/04/08 14:24:26;;;;;;;17.10;11.70;;;;;;;;;;106819;1257;22996;-83
2023/04/08 14:26:53;;;;;;;17.40;12.10;;;;;;;;;;106835;1277;22519;-83
2023/04/08 14:29:20;;;;;;;17.40;12.10;;;;;;;;;;106841;1277;24295;-79
2023/04/08 14:31:47;;;;;;;17.80;12.10;;;;;;;;;;106880;1277;21844;-77
2023/04/08 14:34:13;;;;;;;15.10;9.60;;;;;;;;;;106829;1260;23902;-80
2023/04/08 14:36:40;;;;;;;16.80;11.20;;;;;;;;;;106909;1277;22523;-82
2023/04/08 14:39:07;;;;;;;18.10;11.50;;;;;;;;;;106839;1278;24361;-83
2023/04/08 14:41:34;;;;;;;17.30;10.80;;;;;;;;;;106874;1276;24239;-80
2023/04/08 14:44:00;;;;;;;15.10;9.90;;;;;;;;;;106844;1260;22522;-84
2023/04/08 14:46:27;;;;;;;22.80;13.70;;;;;;;;;;106847;1278;22521;-81
2023/04/08 14:48:57;;;;;;;19.70;12.90;;;;;;;;;;106841;1278;24186;-78
2023/04/08 14:51:24;;;;;;;30.20;19.10;;;;;;;;;;106823;1278;22550;-83
2023/04/08 14:53:51;;;;;;;24.20;15.50;;;;;;;;;;106827;1259;22618;-83
2023/04/08 14:56:18;;;;;;;22.20;13.50;;;;;;;;;;106747;1278;22485;-80
2023/04/08 14:58:44;;;;;;;20.60;13.00;;;;;;;;;;106881;1277;22519;-80
2023/04/08 15:01:11;;;;;;;18.30;11.70;;;;;;;;;;106901;1278;25319;-77
2023/04/08 15:03:38;;;;;;;16.40;11.30;;;;;;;;;;106729;1265;25679;-76
2023/04/08 15:06:05;;;;;;;19.20;11.90;;;;;;;;;;106740;1277;25334;-77